createdAt,value
2019-04-19T00:03:24.226Z,4.00
2019-04-19T00:08:37.295Z,4.20
2019-04-19T00:13:28.418Z,5.13
2019-04-19T00:18:31.119Z,4.87
2019-04-19T00:23:38.325Z,4.40
2019-04-19T00:28:44.945Z,5.13
2019-04-19T00:33:47.569Z,4.43
2019-04-19T00:39:06.426Z,4.70
2019-04-19T00:44:38.536Z,4.03
2019-04-19T00:49:33.932Z,3.67
2019-04-19T00:54:45.554Z,4.90
2019-04-19T00:59:40.501Z,4.20
2019-04-19T01:04:39.686Z,4.10
2019-04-19T01:10:02.747Z,4.80
2019-04-19T01:15:01.026Z,4.57
2019-04-19T01:19:56.882Z,4.23
2019-04-19T01:24:56.318Z,4.20
2019-04-19T01:30:00.961Z,4.60
2019-04-19T01:35:09.716Z,4.00
2019-04-19T01:40:22.486Z,4.33
2019-04-19T01:45:42.391Z,4.77
2019-04-19T01:51:07.772Z,5.87
2019-04-19T01:55:53.199Z,5.33
2019-04-19T02:00:58.738Z,5.60
2019-04-19T02:06:05.152Z,4.90
2019-04-19T02:12:03.531Z,5.83
2019-04-19T02:17:02.578Z,4.83
2019-04-19T02:22:11.385Z,3.90
2019-04-19T02:27:10.101Z,4.80
2019-04-19T02:32:43.313Z,4.90
2019-04-19T02:37:37.628Z,4.57
2019-04-19T02:42:44.862Z,4.30
2019-04-19T02:48:12.988Z,4.93
2019-04-19T02:52:56.637Z,4.40
2019-04-19T02:58:04.534Z,5.20
2019-04-19T03:07:57.637Z,5.30
2019-04-19T03:13:19.546Z,5.57
2019-04-19T03:18:29.043Z,6.30
2019-04-19T03:23:21.798Z,5.30
2019-04-19T03:28:22.130Z,6.13
2019-04-19T03:38:39.818Z,6.63
2019-04-19T03:44:03.691Z,5.40
2019-04-19T03:49:19.600Z,5.10
2019-04-19T03:54:19.155Z,5.40
2019-04-19T03:59:02.854Z,5.27
2019-04-19T04:04:11.950Z,5.10
2019-04-19T04:09:25.113Z,5.60
2019-04-19T04:14:49.568Z,5.23
2019-04-19T04:19:39.655Z,5.07
2019-04-19T04:24:55.446Z,5.00
2019-04-19T04:30:00.124Z,4.93
2019-04-19T04:35:10.792Z,5.40
2019-04-19T04:39:57.679Z,5.33
2019-04-19T04:45:22.995Z,5.33
2019-04-19T04:51:04.447Z,5.23
2019-04-19T04:55:57.921Z,5.30
2019-04-19T05:01:05.006Z,5.37
2019-04-19T05:06:22.800Z,6.00
2019-04-19T05:11:24.426Z,5.47
2019-04-19T05:21:38.844Z,5.97
2019-04-19T05:26:48.135Z,5.53
2019-04-19T05:31:35.749Z,6.07
2019-04-19T05:36:54.603Z,6.73
2019-04-19T05:42:03.757Z,6.20
2019-04-19T05:47:17.198Z,7.37
2019-04-19T05:52:19.154Z,6.13
2019-04-19T05:57:28.107Z,6.37
2019-04-19T06:02:19.218Z,6.77
2019-04-19T06:07:31.743Z,6.77
2019-04-19T06:12:26.862Z,6.40
2019-04-19T06:17:56.348Z,6.97
2019-04-19T06:23:02.530Z,6.60
2019-04-19T06:33:13.787Z,7.50
2019-04-19T06:37:59.247Z,7.10
2019-04-19T06:43:11.136Z,7.97
2019-04-19T06:48:12.801Z,7.60
2019-04-19T06:53:12.280Z,8.00
2019-04-19T06:58:22.292Z,9.30
2019-04-19T07:03:19.822Z,8.17
2019-04-19T07:13:38.330Z,8.30
2019-04-19T07:18:42.513Z,8.87
2019-04-19T07:23:54.340Z,8.00
2019-04-19T07:28:41.908Z,10.37
2019-04-19T07:34:07.418Z,9.40
2019-04-19T07:39:09.462Z,9.03
2019-04-19T07:44:21.333Z,8.40
2019-04-19T07:49:15.312Z,9.90
2019-04-19T07:54:25.271Z,9.90
2019-04-19T07:59:55.688Z,9.03
2019-04-19T08:10:24.786Z,9.80
2019-04-19T08:15:15.447Z,10.17
2019-04-19T08:30:04.575Z,9.97
2019-04-19T08:35:09.383Z,10.50
2019-04-19T08:40:33.564Z,8.77
2019-04-19T08:45:33.057Z,9.40
2019-04-19T08:50:48.228Z,9.37
2019-04-19T08:56:05.616Z,9.33
2019-04-19T09:01:17.479Z,9.27
2019-04-19T09:07:05.757Z,9.03
2019-04-19T09:11:16.744Z,9.97
2019-04-19T09:16:20.429Z,9.70
2019-04-19T09:21:21.560Z,9.63
2019-04-19T09:26:36.919Z,9.27
2019-04-19T09:31:32.255Z,9.07
2019-04-19T09:36:35.796Z,9.70
2019-04-19T09:41:38.697Z,10.07
2019-04-19T09:46:36.029Z,9.87
2019-04-19T09:51:55.590Z,10.30
2019-04-19T09:56:57.946Z,10.00
2019-04-19T10:01:52.217Z,9.80
2019-04-19T10:06:54.214Z,10.07
2019-04-19T10:11:59.161Z,10.03
2019-04-19T10:17:12.350Z,8.90
2019-04-19T10:22:16.597Z,10.70
2019-04-19T10:27:24.867Z,9.40
2019-04-19T10:32:30.625Z,11.20
2019-04-19T10:37:33.724Z,10.60
2019-04-19T10:42:36.563Z,9.50
2019-04-19T10:47:39.969Z,10.40
2019-04-19T10:52:43.687Z,10.00
2019-04-19T10:57:47.348Z,10.00
2019-04-19T11:02:50.316Z,9.40
2019-04-19T11:07:53.759Z,8.60
2019-04-19T11:12:56.814Z,10.43
2019-04-19T11:17:59.555Z,11.40
2019-04-19T11:23:02.278Z,8.63
2019-04-19T11:28:05.058Z,8.03
2019-04-19T11:33:16.880Z,10.47
2019-04-19T11:38:20.922Z,10.40
2019-04-19T11:43:25.148Z,9.40
2019-04-19T11:48:30.336Z,10.37
2019-04-19T11:53:42.864Z,10.80
2019-04-19T11:58:47.097Z,10.00
2019-04-19T12:03:50.096Z,8.10
2019-04-19T12:08:54.026Z,9.30
2019-04-19T12:13:58.355Z,8.90
2019-04-19T12:19:02.170Z,8.27
2019-04-19T12:24:04.936Z,8.60
2019-04-19T12:29:07.657Z,8.83
2019-04-19T12:34:11.411Z,8.90
2019-04-19T12:39:15.113Z,8.70
2019-04-19T12:44:17.827Z,8.43
2019-04-19T12:49:20.804Z,7.80
2019-04-19T12:54:23.754Z,7.33
2019-04-19T12:59:26.559Z,8.10
2019-04-19T13:04:36.202Z,6.70
2019-04-19T13:09:39.319Z,6.73
2019-04-19T13:14:42.135Z,7.03
2019-04-19T13:19:45.091Z,6.60
2019-04-19T13:24:48.178Z,6.80
2019-04-19T13:29:52.000Z,6.60
2019-04-19T13:34:55.080Z,6.47
2019-04-19T13:40:17.509Z,6.60
2019-04-19T13:45:26.855Z,6.90
2019-04-19T13:50:32.182Z,6.67
2019-04-19T13:55:30.677Z,7.23
2019-04-19T14:00:46.805Z,6.63
2019-04-19T14:05:50.415Z,6.73
2019-04-19T14:10:53.181Z,7.10
2019-04-19T14:15:56.555Z,6.93
2019-04-19T14:21:00.966Z,6.50
2019-04-19T14:26:05.537Z,6.17
2019-04-19T14:31:08.514Z,6.53
2019-04-19T14:36:11.224Z,5.63
2019-04-19T14:41:13.972Z,6.37
2019-04-19T14:46:16.791Z,6.83
2019-04-19T14:51:25.813Z,6.90
2019-04-19T14:56:24.247Z,6.37
2019-04-19T15:01:46.898Z,6.23
2019-04-19T15:06:49.815Z,5.93
2019-04-19T15:11:52.717Z,6.37
2019-04-19T15:16:56.755Z,6.17
2019-04-19T15:21:59.801Z,5.77
2019-04-19T15:27:03.093Z,7.70
2019-04-19T15:32:06.341Z,6.50
2019-04-19T15:37:09.635Z,6.47
2019-04-19T15:42:12.437Z,5.80
2019-04-19T15:47:15.166Z,6.07
2019-04-19T15:52:18.104Z,5.50
2019-04-19T15:57:20.824Z,5.87
2019-04-19T16:02:42.282Z,7.20
2019-04-19T16:08:11.143Z,6.53
2019-04-19T16:13:13.969Z,5.50
2019-04-19T16:18:20.036Z,5.37
2019-04-19T16:23:23.894Z,5.70
2019-04-19T16:28:27.462Z,7.10
2019-04-19T16:33:30.386Z,4.20
2019-04-19T16:38:33.143Z,4.80
2019-04-19T16:43:35.886Z,5.20
2019-04-19T16:48:38.607Z,5.03
2019-04-19T16:53:42.232Z,5.20
2019-04-19T16:58:45.148Z,4.93
2019-04-19T17:03:47.907Z,4.80
2019-04-19T17:08:52.633Z,4.77
2019-04-19T17:13:56.591Z,4.60
2019-04-19T17:19:22.071Z,3.60
2019-04-19T17:24:26.867Z,3.70
2019-04-19T17:29:31.055Z,4.33
2019-04-19T17:34:34.217Z,4.20
2019-04-19T17:39:38.196Z,3.87
2019-04-19T17:44:41.744Z,4.40
2019-04-19T17:49:46.548Z,3.50
2019-04-19T17:55:04.964Z,3.70
2019-04-19T17:59:56.328Z,4.40
2019-04-19T18:05:00.024Z,3.63
2019-04-19T18:10:09.622Z,3.50
2019-04-19T18:15:09.832Z,3.60
2019-04-19T18:20:19.075Z,4.60
2019-04-19T18:25:20.147Z,4.27
2019-04-19T18:30:24.564Z,4.10
2019-04-19T18:35:31.796Z,4.20
2019-04-19T18:40:35.344Z,4.70
2019-04-19T18:45:41.966Z,4.30
2019-04-19T18:50:50.412Z,4.00
2019-04-19T18:55:53.581Z,3.70
2019-04-19T19:00:57.012Z,3.90
2019-04-19T19:06:04.097Z,5.40
2019-04-19T19:11:13.045Z,4.27
2019-04-19T19:16:18.569Z,4.50
2019-04-19T19:21:18.100Z,5.20
2019-04-19T19:26:31.869Z,5.63
2019-04-19T19:31:29.646Z,4.93
2019-04-19T19:36:37.936Z,4.80
2019-04-19T19:42:32.577Z,4.70
2019-04-19T19:47:25.130Z,5.53
2019-04-19T19:52:18.450Z,6.00
2019-04-19T19:57:23.009Z,6.17
2019-04-19T20:02:23.566Z,6.87
2019-04-19T20:07:20.667Z,7.27
2019-04-19T20:12:26.479Z,7.90
2019-04-19T20:17:29.279Z,7.20
2019-04-19T20:22:39.126Z,7.10
2019-04-19T20:27:44.870Z,5.83
2019-04-19T20:32:49.918Z,6.60
2019-04-19T20:37:52.046Z,5.77
2019-04-19T20:43:16.585Z,6.77
2019-04-19T20:48:07.901Z,6.10
2019-04-19T20:53:29.255Z,6.97
2019-04-19T20:58:34.324Z,6.87
2019-04-19T21:03:34.334Z,7.43
2019-04-19T21:08:42.365Z,6.97
2019-04-19T21:13:45.850Z,9.00
2019-04-19T21:18:49.440Z,9.07
2019-04-19T21:24:01.503Z,7.77
2019-04-19T21:28:59.192Z,8.37
2019-04-19T21:34:05.983Z,8.30
2019-04-19T21:39:11.973Z,8.87
2019-04-19T21:44:17.940Z,8.00
2019-04-19T21:49:22.804Z,7.00
2019-04-19T21:54:26.434Z,7.00
2019-04-19T21:59:34.553Z,6.70
2019-04-19T22:04:41.150Z,7.20
2019-04-19T22:09:43.379Z,6.30
2019-04-19T22:14:44.435Z,7.27
2019-04-19T22:19:47.728Z,6.70
2019-04-19T22:24:51.393Z,6.57
2019-04-19T22:29:55.571Z,6.33
2019-04-19T22:35:00.756Z,6.17
2019-04-19T22:40:04.869Z,5.97
2019-04-19T22:45:11.658Z,6.23
2019-04-19T22:50:19.391Z,6.70
2019-04-19T22:55:19.113Z,5.63
2019-04-19T23:00:24.729Z,5.27
2019-04-19T23:05:36.578Z,6.27
2019-04-19T23:10:45.038Z,5.90
2019-04-19T23:15:39.139Z,6.30
2019-04-19T23:20:43.388Z,5.60
2019-04-19T23:25:57.081Z,5.00
2019-04-19T23:30:51.753Z,5.73
2019-04-19T23:35:55.628Z,5.97
2019-04-19T23:40:59.277Z,4.93
2019-04-19T23:46:03.389Z,5.10
2019-04-19T23:51:06.399Z,4.93
2019-04-19T23:56:19.903Z,5.20
